createdAt,value
2023-04-17T00:00:21.938Z,7.30
2023-04-17T00:02:51.370Z,6.53
2023-04-17T00:05:23.348Z,6.77
2023-04-17T00:07:51.350Z,7.37
2023-04-17T00:10:19.259Z,7.50
2023-04-17T00:12:47.237Z,7.57
2023-04-17T00:15:15.167Z,7.30
2023-04-17T00:17:43.206Z,7.00
2023-04-17T00:20:13.678Z,6.93
2023-04-17T00:22:41.719Z,6.87
2023-04-17T00:25:13.178Z,7.70
2023-04-17T00:27:41.043Z,7.30
2023-04-17T00:30:09.720Z,7.27
2023-04-17T00:32:37.702Z,6.67
2023-04-17T00:35:05.972Z,6.30
2023-04-17T00:37:35.887Z,7.13
2023-04-17T00:40:04.052Z,7.00
2023-04-17T00:42:31.978Z,6.73
2023-04-17T00:44:59.885Z,6.67
2023-04-17T00:47:27.834Z,6.40
2023-04-17T00:49:55.872Z,6.90
2023-04-17T00:52:28.757Z,6.53
2023-04-17T00:54:59.292Z,6.40
2023-04-17T00:57:28.095Z,6.93
2023-04-17T00:59:57.373Z,6.67
2023-04-17T01:02:26.270Z,7.10
2023-04-17T01:04:54.312Z,7.13
2023-04-17T01:07:22.288Z,7.07
2023-04-17T01:09:50.160Z,7.10
2023-04-17T01:12:20.722Z,6.50
2023-04-17T01:14:48.942Z,6.80
2023-04-17T01:17:19.080Z,7.57
2023-04-17T01:19:47.258Z,7.20
2023-04-17T01:22:16.502Z,6.87
2023-04-17T01:24:45.897Z,6.63
2023-04-17T01:27:15.451Z,6.60
2023-04-17T01:29:43.547Z,6.67
2023-04-17T01:32:11.645Z,6.37
2023-04-17T01:34:39.582Z,6.67
2023-04-17T01:37:07.723Z,6.97
2023-04-17T01:39:35.667Z,5.67
2023-04-17T01:42:05.195Z,6.70
2023-04-17T01:44:37.631Z,6.87
2023-04-17T01:47:05.674Z,6.77
2023-04-17T01:49:33.799Z,6.20
2023-04-17T01:52:01.971Z,7.07
2023-04-17T01:54:29.953Z,6.17
2023-04-17T01:56:58.086Z,6.83
2023-04-17T01:59:27.513Z,6.57
2023-04-17T02:01:56.573Z,6.97
2023-04-17T02:04:24.835Z,6.70
2023-04-17T02:06:52.909Z,6.93
2023-04-17T02:09:20.894Z,7.17
2023-04-17T02:11:52.019Z,7.80
2023-04-17T02:14:20.014Z,8.03
2023-04-17T02:16:50.333Z,6.63
2023-04-17T02:19:18.245Z,7.37
2023-04-17T02:21:46.122Z,7.40
2023-04-17T02:24:14.104Z,7.40
2023-04-17T02:26:42.089Z,7.30
2023-04-17T02:29:10.177Z,7.90
2023-04-17T02:31:38.325Z,7.47
2023-04-17T02:34:07.751Z,7.10
2023-04-17T02:36:35.936Z,6.97
2023-04-17T02:39:04.119Z,7.93
2023-04-17T02:41:32.123Z,7.27
2023-04-17T02:44:01.785Z,7.10
2023-04-17T02:46:29.751Z,6.83
2023-04-17T02:48:57.780Z,7.50
2023-04-17T02:51:27.742Z,6.67
2023-04-17T02:53:55.681Z,7.27
2023-04-17T02:56:23.652Z,7.23
2023-04-17T02:58:51.712Z,6.90
2023-04-17T03:01:28.162Z,7.23
2023-04-17T03:03:56.513Z,6.90
2023-04-17T03:06:24.935Z,6.70
2023-04-17T03:08:54.324Z,7.10
2023-04-17T03:11:22.250Z,6.93
2023-04-17T03:13:50.142Z,7.53
2023-04-17T03:16:18.132Z,6.93
2023-04-17T03:18:46.125Z,7.70
2023-04-17T03:21:14.103Z,7.03
2023-04-17T03:23:42.447Z,7.00
2023-04-17T03:26:11.736Z,7.37
2023-04-17T03:28:39.647Z,7.50
2023-04-17T03:31:07.621Z,6.83
2023-04-17T03:33:35.649Z,7.00
2023-04-17T03:36:03.865Z,6.97
2023-04-17T03:38:31.793Z,6.40
2023-04-17T03:40:59.769Z,6.00
2023-04-17T03:43:29.116Z,6.40
2023-04-17T03:45:57.061Z,7.13
2023-04-17T03:48:25.054Z,6.93
2023-04-17T03:50:53.199Z,7.10
2023-04-17T03:53:21.206Z,6.87
2023-04-17T03:55:49.141Z,6.57
2023-04-17T03:58:17.231Z,6.93
2023-04-17T04:00:46.608Z,6.77
2023-04-17T04:03:14.819Z,7.17
2023-04-17T04:05:42.941Z,7.30
2023-04-17T04:08:10.869Z,7.80
2023-04-17T04:10:38.917Z,7.33
2023-04-17T04:13:09.816Z,6.73
2023-04-17T04:15:37.898Z,6.80
2023-04-17T04:18:07.550Z,7.23
2023-04-17T04:20:35.743Z,6.33
2023-04-17T04:23:04.769Z,7.00
2023-04-17T04:25:34.588Z,6.23
2023-04-17T04:28:03.296Z,6.30
2023-04-17T04:30:36.009Z,6.33
2023-04-17T04:33:06.118Z,7.70
2023-04-17T04:35:38.397Z,6.33
2023-04-17T04:38:06.533Z,7.07
2023-04-17T04:40:36.364Z,6.53
2023-04-17T04:43:06.333Z,6.37
2023-04-17T04:45:34.586Z,7.30
2023-04-17T04:48:02.627Z,5.87
2023-04-17T04:50:31.143Z,6.37
2023-04-17T04:53:00.539Z,6.90
2023-04-17T04:55:30.877Z,7.07
2023-04-17T04:57:58.865Z,7.03
2023-04-17T05:00:26.909Z,7.17
2023-04-17T05:02:54.976Z,7.63
2023-04-17T05:05:23.255Z,7.07
2023-04-17T05:07:54.050Z,6.63
2023-04-17T05:10:23.907Z,6.80
2023-04-17T05:12:52.101Z,7.47
2023-04-17T05:15:20.774Z,6.87
2023-04-17T05:17:48.861Z,6.87
2023-04-17T05:20:22.868Z,7.00
2023-04-17T05:22:51.040Z,6.03
2023-04-17T05:25:19.883Z,6.50
2023-04-17T05:27:49.207Z,6.07
2023-04-17T05:30:17.463Z,7.07
2023-04-17T05:32:45.407Z,6.40
2023-04-17T05:35:13.347Z,6.67
2023-04-17T05:37:41.244Z,6.47
2023-04-17T05:40:10.011Z,6.70
2023-04-17T05:42:37.941Z,6.83
2023-04-17T05:45:07.936Z,6.83
2023-04-17T05:47:38.475Z,6.33
2023-04-17T05:50:09.738Z,7.30
2023-04-17T05:52:39.455Z,6.33
2023-04-17T05:55:08.085Z,6.93
2023-04-17T05:57:36.153Z,6.63
2023-04-17T06:00:10.686Z,7.37
2023-04-17T06:02:41.199Z,7.17
2023-04-17T06:05:09.803Z,6.77
2023-04-17T06:07:38.686Z,7.43
2023-04-17T06:10:07.102Z,6.73
2023-04-17T06:12:35.021Z,7.03
2023-04-17T06:15:03.062Z,7.37
2023-04-17T06:17:31.936Z,7.10
2023-04-17T06:20:01.394Z,6.37
2023-04-17T06:22:29.258Z,7.00
2023-04-17T06:24:57.211Z,7.07
2023-04-17T06:27:25.111Z,7.40
2023-04-17T06:29:53.172Z,7.20
2023-04-17T06:32:21.117Z,7.47
2023-04-17T06:34:58.964Z,8.03
2023-04-17T06:37:29.084Z,7.70
2023-04-17T06:39:57.054Z,7.83
2023-04-17T06:42:25.063Z,7.60
2023-04-17T06:44:52.957Z,7.53
2023-04-17T06:47:20.882Z,7.53
2023-04-17T06:49:48.853Z,7.90
2023-04-17T06:52:18.086Z,7.53
2023-04-17T06:54:47.378Z,8.20
2023-04-17T06:57:15.303Z,7.70
2023-04-17T06:59:43.269Z,7.60
2023-04-17T07:02:11.413Z,8.67
2023-04-17T07:04:39.366Z,8.00
2023-04-17T07:07:07.327Z,8.50
2023-04-17T07:09:35.211Z,8.10
2023-04-17T07:12:05.090Z,8.37
2023-04-17T07:14:33.703Z,7.60
2023-04-17T07:17:01.958Z,7.73
2023-04-17T07:19:29.935Z,8.40
2023-04-17T07:21:57.843Z,7.60
2023-04-17T07:24:25.865Z,8.13
2023-04-17T07:26:53.893Z,8.53
2023-04-17T07:29:23.492Z,8.97
2023-04-17T07:31:51.514Z,8.10
2023-04-17T07:34:19.706Z,8.37
2023-04-17T07:36:47.754Z,8.70
2023-04-17T07:39:15.669Z,8.50
2023-04-17T07:41:43.595Z,8.03
2023-04-17T07:44:11.462Z,8.10
2023-04-17T07:46:41.573Z,8.20
2023-04-17T07:49:12.052Z,9.53
2023-04-17T07:51:41.352Z,8.90
2023-04-17T07:54:09.548Z,9.57
2023-04-17T07:56:37.499Z,8.77
2023-04-17T07:59:05.421Z,8.57
2023-04-17T08:01:34.013Z,8.57
2023-04-17T08:04:03.755Z,7.77
2023-04-17T08:06:32.503Z,9.60
2023-04-17T08:09:02.341Z,8.07
2023-04-17T08:11:30.245Z,7.90
2023-04-17T08:13:58.154Z,8.70
2023-04-17T08:16:26.166Z,8.80
2023-04-17T08:18:54.104Z,8.37
2023-04-17T08:21:23.436Z,8.27
2023-04-17T08:23:51.364Z,9.00
2023-04-17T08:26:20.658Z,8.13
2023-04-17T08:28:48.643Z,8.60
2023-04-17T08:31:16.633Z,8.77
2023-04-17T08:33:44.567Z,8.13
2023-04-17T08:36:12.586Z,8.53
2023-04-17T08:38:42.270Z,8.60
2023-04-17T08:41:13.407Z,10.23
2023-04-17T08:43:41.428Z,9.20
2023-04-17T08:46:09.444Z,9.10
2023-04-17T08:48:37.542Z,8.97
2023-04-17T08:51:05.554Z,8.60
2023-04-17T08:53:33.579Z,8.90
2023-04-17T08:56:08.318Z,9.03
2023-04-17T08:58:37.389Z,8.83
2023-04-17T09:01:11.703Z,9.03
2023-04-17T09:03:43.482Z,8.77
2023-04-17T09:06:12.178Z,8.20
2023-04-17T09:08:40.538Z,8.60
2023-04-17T09:11:18.936Z,9.10
2023-04-17T09:13:47.000Z,7.73
2023-04-17T09:16:16.035Z,7.87
2023-04-17T09:18:46.229Z,7.93
2023-04-17T09:21:14.686Z,7.70
2023-04-17T09:23:49.729Z,7.50
2023-04-17T09:26:20.159Z,7.13
2023-04-17T09:29:05.072Z,7.40
2023-04-17T09:31:34.587Z,7.47
2023-04-17T09:34:03.374Z,7.27
2023-04-17T09:36:33.863Z,7.00
2023-04-17T09:39:04.576Z,7.17
2023-04-17T09:41:34.851Z,7.13
2023-04-17T09:44:05.702Z,7.03
2023-04-17T09:46:34.554Z,7.13
2023-04-17T09:49:04.387Z,7.37
2023-04-17T09:51:38.902Z,6.83
2023-04-17T09:54:11.690Z,7.07
2023-04-17T09:56:41.705Z,7.23
2023-04-17T09:59:09.971Z,6.90
2023-04-17T10:01:38.610Z,7.43
2023-04-17T10:04:07.337Z,6.60
2023-04-17T10:06:36.153Z,7.43
2023-04-17T10:09:04.485Z,6.27
2023-04-17T10:11:35.641Z,7.80
2023-04-17T10:14:09.762Z,6.40
2023-04-17T10:16:38.445Z,5.97
2023-04-17T10:19:26.458Z,7.03
2023-04-17T10:22:12.858Z,7.03
2023-04-17T10:24:41.016Z,32.90
2023-04-17T10:27:23.879Z,8.97
2023-04-17T10:29:56.798Z,6.70
2023-04-17T10:32:29.318Z,6.63
2023-04-17T10:34:58.426Z,6.17
2023-04-17T10:37:42.399Z,7.17
2023-04-17T10:40:12.933Z,7.20
2023-04-17T10:42:42.023Z,6.47
2023-04-17T10:45:19.602Z,6.23
2023-04-17T10:47:59.470Z,6.63
2023-04-17T10:50:29.394Z,6.83
2023-04-17T10:52:57.295Z,6.30
2023-04-17T10:55:28.023Z,6.90
2023-04-17T10:57:57.542Z,6.37
2023-04-17T11:00:34.296Z,6.07
2023-04-17T11:03:05.865Z,6.30
2023-04-17T11:05:35.937Z,6.23
2023-04-17T11:08:04.130Z,6.93
2023-04-17T11:10:36.487Z,6.53
2023-04-17T11:13:04.448Z,6.40
2023-04-17T11:15:35.151Z,6.97
2023-04-17T11:18:03.606Z,7.27
2023-04-17T11:20:32.587Z,7.20
2023-04-17T11:23:02.201Z,6.00
2023-04-17T11:25:31.736Z,7.57
2023-04-17T11:28:00.210Z,6.40
2023-04-17T11:30:28.557Z,5.47
2023-04-17T11:32:58.304Z,5.23
2023-04-17T11:35:30.133Z,6.17
2023-04-17T11:38:11.900Z,6.17
2023-04-17T11:40:46.701Z,5.93
2023-04-17T11:43:14.810Z,5.70
2023-04-17T11:45:44.064Z,5.57
2023-04-17T11:48:13.805Z,6.30
2023-04-17T11:50:42.772Z,5.80
2023-04-17T11:53:13.562Z,5.83
2023-04-17T11:55:41.560Z,6.60
2023-04-17T11:58:10.091Z,5.40
2023-04-17T12:00:38.620Z,5.70
2023-04-17T12:03:21.693Z,5.10
2023-04-17T12:06:00.922Z,5.57
2023-04-17T12:08:29.714Z,5.13
2023-04-17T12:10:58.605Z,4.70
2023-04-17T12:13:27.104Z,5.50
2023-04-17T12:15:55.248Z,5.80
2023-04-17T12:18:23.161Z,5.70
2023-04-17T12:20:51.494Z,6.03
2023-04-17T12:23:20.911Z,6.20
2023-04-17T12:25:48.987Z,5.57
2023-04-17T12:28:20.812Z,6.87
2023-04-17T12:30:48.828Z,6.27
2023-04-17T12:33:16.917Z,5.27
2023-04-17T12:35:45.350Z,6.07
2023-04-17T12:38:13.400Z,5.60
2023-04-17T12:40:43.466Z,5.40
2023-04-17T12:43:11.498Z,5.43
2023-04-17T12:45:42.268Z,5.17
2023-04-17T12:48:10.487Z,4.97
2023-04-17T12:50:42.591Z,5.70
2023-04-17T12:53:11.212Z,5.53
2023-04-17T12:55:39.334Z,4.93
2023-04-17T12:58:09.249Z,4.93
2023-04-17T13:00:37.208Z,4.90
2023-04-17T13:03:06.145Z,4.87
2023-04-17T13:05:34.177Z,5.80
2023-04-17T13:08:02.178Z,4.63
2023-04-17T13:10:30.151Z,5.10
2023-04-17T13:12:58.085Z,5.27
2023-04-17T13:15:27.463Z,4.63
2023-04-17T13:17:55.597Z,4.80
2023-04-17T13:20:23.947Z,4.30
2023-04-17T13:22:51.875Z,5.07
2023-04-17T13:25:19.878Z,5.17
2023-04-17T13:27:47.896Z,4.80
2023-04-17T13:30:16.057Z,4.73
2023-04-17T13:32:45.489Z,3.97
2023-04-17T13:35:14.680Z,4.10
2023-04-17T13:37:42.878Z,4.20
2023-04-17T13:40:11.982Z,4.40
2023-04-17T13:42:40.025Z,3.90
2023-04-17T13:45:08.758Z,4.50
2023-04-17T13:47:36.760Z,4.10
2023-04-17T13:50:06.936Z,4.40
2023-04-17T13:52:34.836Z,4.13
2023-04-17T13:55:02.772Z,4.47
2023-04-17T13:57:30.763Z,4.03
2023-04-17T13:59:58.696Z,4.27
2023-04-17T14:02:26.875Z,3.87
2023-04-17T14:04:55.016Z,4.60
2023-04-17T14:07:24.478Z,4.73
2023-04-17T14:09:52.398Z,4.60
2023-04-17T14:12:21.859Z,4.33
2023-04-17T14:14:49.782Z,4.57
2023-04-17T14:17:18.265Z,4.37
2023-04-17T14:19:46.187Z,4.70
2023-04-17T14:22:14.145Z,3.93
2023-04-17T14:24:43.520Z,4.37
2023-04-17T14:27:11.502Z,4.30
2023-04-17T14:29:39.463Z,4.47
2023-04-17T14:32:07.583Z,4.17
2023-04-17T14:34:38.600Z,5.07
2023-04-17T14:37:06.684Z,3.37
2023-04-17T14:39:34.614Z,4.70
2023-04-17T14:42:04.038Z,25.37
2023-04-17T14:44:32.002Z,4.37
2023-04-17T14:47:00.046Z,4.40
2023-04-17T14:49:28.055Z,4.00
2023-04-17T14:51:56.108Z,4.17
2023-04-17T14:54:24.027Z,3.57
2023-04-17T14:56:52.074Z,3.90
2023-04-17T14:59:21.466Z,3.97
2023-04-17T15:01:49.429Z,4.23
2023-04-17T15:04:17.635Z,4.13
2023-04-17T15:06:45.888Z,4.20
2023-04-17T15:09:14.263Z,3.70
2023-04-17T15:11:42.449Z,4.00
2023-04-17T15:14:10.384Z,3.53
2023-04-17T15:16:39.748Z,3.37
2023-04-17T15:19:07.732Z,3.60
2023-04-17T15:21:35.669Z,3.50
2023-04-17T15:24:03.819Z,3.20
2023-04-17T15:26:33.279Z,3.27
2023-04-17T15:29:01.850Z,3.47
2023-04-17T15:31:29.794Z,4.03
2023-04-17T15:33:59.159Z,3.87
2023-04-17T15:36:31.441Z,3.57
2023-04-17T15:38:59.498Z,3.87
2023-04-17T15:41:27.511Z,3.83
2023-04-17T15:43:55.524Z,3.63
2023-04-17T15:46:23.729Z,3.70
2023-04-17T15:49:04.956Z,3.40
2023-04-17T15:51:38.562Z,3.87
2023-04-17T15:54:08.213Z,3.87
2023-04-17T15:56:36.145Z,3.40
2023-04-17T15:59:04.085Z,3.53
2023-04-17T16:01:31.996Z,2.83
2023-04-17T16:04:00.222Z,3.30
2023-04-17T16:06:28.802Z,2.80
2023-04-17T16:08:58.123Z,3.20
2023-04-17T16:11:28.345Z,3.50
2023-04-17T16:13:56.392Z,3.03
2023-04-17T16:16:24.473Z,3.10
2023-04-17T16:18:52.455Z,2.70
2023-04-17T16:21:20.507Z,2.97
2023-04-17T16:23:49.680Z,3.13
2023-04-17T16:26:18.976Z,2.87
2023-04-17T16:28:47.279Z,2.90
2023-04-17T16:31:17.163Z,3.20
2023-04-17T16:33:45.414Z,3.17
2023-04-17T16:36:13.350Z,3.30
2023-04-17T16:38:41.338Z,3.33
2023-04-17T16:41:09.347Z,3.03
2023-04-17T16:43:39.068Z,2.73
2023-04-17T16:46:18.443Z,3.40
2023-04-17T16:48:49.926Z,2.97
2023-04-17T16:51:20.416Z,3.23
2023-04-17T16:53:48.522Z,2.93
2023-04-17T16:56:16.546Z,3.00
2023-04-17T16:58:45.921Z,3.20
2023-04-17T17:01:14.236Z,3.53
2023-04-17T17:03:43.420Z,2.73
2023-04-17T17:06:11.499Z,2.87
2023-04-17T17:08:39.653Z,2.80
2023-04-17T17:11:07.629Z,2.60
2023-04-17T17:13:35.605Z,3.23
2023-04-17T17:16:04.959Z,3.17
2023-04-17T17:18:32.915Z,2.87
2023-04-17T17:21:02.070Z,3.20
2023-04-17T17:23:30.026Z,2.77
2023-04-17T17:25:57.942Z,2.90
2023-04-17T17:28:25.886Z,2.60
2023-04-17T17:30:59.353Z,2.70
2023-04-17T17:33:28.752Z,2.50
2023-04-17T17:35:56.688Z,2.77
2023-04-17T17:38:24.686Z,2.77
2023-04-17T17:40:53.400Z,3.30
2023-04-17T17:43:21.357Z,3.20
2023-04-17T17:45:49.503Z,3.80
2023-04-17T17:48:18.390Z,3.27
2023-04-17T17:50:47.777Z,2.70
2023-04-17T17:53:17.619Z,3.53
2023-04-17T17:55:51.549Z,2.67
2023-04-17T17:58:19.636Z,2.90
2023-04-17T18:00:47.611Z,3.30
2023-04-17T18:03:16.791Z,2.87
2023-04-17T18:05:45.052Z,2.70
2023-04-17T18:08:14.457Z,2.83
2023-04-17T18:10:42.362Z,2.90
2023-04-17T18:13:10.352Z,2.60
2023-04-17T18:15:38.245Z,3.10
2023-04-17T18:18:06.296Z,2.67
2023-04-17T18:20:38.101Z,2.90
2023-04-17T18:23:06.084Z,3.03
2023-04-17T18:25:35.842Z,3.10
2023-04-17T18:28:03.978Z,3.00
2023-04-17T18:30:32.046Z,2.23
2023-04-17T18:33:00.015Z,2.33
2023-04-17T18:35:28.094Z,2.80
2023-04-17T18:37:56.636Z,2.70
2023-04-17T18:40:24.697Z,2.10
2023-04-17T18:42:54.082Z,2.97
2023-04-17T18:45:22.244Z,2.80
2023-04-17T18:47:50.492Z,2.57
2023-04-17T18:50:18.534Z,2.73
2023-04-17T18:52:49.620Z,2.40
2023-04-17T18:55:18.929Z,4.13
2023-04-17T18:57:46.891Z,5.27
2023-04-17T19:00:16.636Z,6.23
2023-04-17T19:02:44.668Z,5.13
2023-04-17T19:05:12.867Z,3.87
2023-04-17T19:07:41.014Z,3.80
2023-04-17T19:10:09.476Z,5.50
2023-04-17T19:12:37.601Z,2.30
2023-04-17T19:15:05.991Z,4.50
2023-04-17T19:17:35.381Z,4.70
2023-04-17T19:20:03.420Z,4.23
2023-04-17T19:22:31.434Z,3.43
2023-04-17T19:24:59.412Z,3.10
2023-04-17T19:27:27.468Z,3.30
2023-04-17T19:29:55.572Z,3.60
2023-04-17T19:32:23.554Z,3.13
2023-04-17T19:34:53.078Z,2.97
2023-04-17T19:37:20.995Z,2.50
2023-04-17T19:39:48.958Z,2.70
2023-04-17T19:42:16.856Z,2.93
2023-04-17T19:44:44.934Z,3.63
2023-04-17T19:47:12.932Z,3.20
2023-04-17T19:49:40.863Z,3.10
2023-04-17T19:52:10.285Z,2.83
2023-04-17T19:54:38.219Z,2.90
2023-04-17T19:57:06.091Z,3.00
2023-04-17T19:59:34.009Z,2.80
2023-04-17T20:02:02.027Z,2.53
2023-04-17T20:04:30.156Z,2.50
2023-04-17T20:06:59.034Z,2.50
2023-04-17T20:09:28.356Z,2.40
2023-04-17T20:11:56.392Z,2.57
2023-04-17T20:14:25.045Z,2.90
2023-04-17T20:16:52.970Z,2.90
2023-04-17T20:19:21.175Z,2.30
2023-04-17T20:21:49.097Z,3.60
2023-04-17T20:24:17.159Z,2.93
2023-04-17T20:26:46.558Z,2.50
2023-04-17T20:29:14.688Z,2.87
2023-04-17T20:31:42.960Z,2.73
2023-04-17T20:34:10.953Z,2.23
2023-04-17T20:36:38.930Z,2.57
2023-04-17T20:39:07.309Z,2.63
2023-04-17T20:41:36.426Z,2.40
2023-04-17T20:44:06.967Z,2.50
2023-04-17T20:46:34.953Z,2.70
2023-04-17T20:49:02.994Z,2.47
2023-04-17T20:51:32.039Z,2.70
2023-04-17T20:54:00.543Z,2.20
2023-04-17T20:56:28.746Z,2.73
2023-04-17T20:58:56.788Z,2.70
2023-04-17T21:01:26.362Z,2.63
2023-04-17T21:03:54.561Z,2.27
2023-04-17T21:06:23.149Z,2.40
2023-04-17T21:08:51.211Z,2.67
2023-04-17T21:11:19.114Z,2.37
2023-04-17T21:13:47.118Z,2.00
2023-04-17T21:16:15.385Z,2.73
2023-04-17T21:18:44.742Z,2.37
2023-04-17T21:21:12.679Z,2.40
2023-04-17T21:23:40.804Z,2.73
2023-04-17T21:26:08.812Z,2.50
2023-04-17T21:28:37.570Z,2.53
2023-04-17T21:31:08.653Z,2.60
2023-04-17T21:33:36.706Z,2.63
2023-04-17T21:36:06.821Z,2.33
2023-04-17T21:38:34.836Z,2.47
2023-04-17T21:41:02.780Z,2.47
2023-04-17T21:43:31.430Z,2.30
2023-04-17T21:45:59.562Z,2.30
2023-04-17T21:48:27.608Z,2.70
2023-04-17T21:50:56.811Z,2.30
2023-04-17T21:53:26.135Z,2.43
2023-04-17T21:55:54.195Z,2.57
2023-04-17T21:58:22.114Z,2.53
2023-04-17T22:00:50.141Z,2.50
2023-04-17T22:03:18.263Z,2.97
2023-04-17T22:05:46.481Z,2.17
2023-04-17T22:08:14.519Z,2.40
2023-04-17T22:10:43.916Z,2.40
2023-04-17T22:13:12.005Z,3.00
2023-04-17T22:15:39.936Z,2.53
2023-04-17T22:18:07.878Z,2.70
2023-04-17T22:20:35.823Z,2.80
2023-04-17T22:23:03.828Z,2.10
2023-04-17T22:25:31.786Z,2.57
2023-04-17T22:28:01.126Z,2.70
2023-04-17T22:30:29.103Z,2.63
2023-04-17T22:32:57.430Z,2.60
2023-04-17T22:35:25.569Z,2.27
2023-04-17T22:37:53.588Z,2.67
2023-04-17T22:40:21.708Z,2.57
2023-04-17T22:42:50.406Z,2.37
2023-04-17T22:45:19.739Z,2.40
2023-04-17T22:47:47.739Z,2.50
2023-04-17T22:50:15.750Z,2.23
2023-04-17T22:52:43.756Z,2.30
2023-04-17T22:55:11.807Z,2.20
2023-04-17T22:57:39.750Z,3.17
2023-04-17T23:00:10.253Z,2.97
2023-04-17T23:02:39.702Z,2.30
2023-04-17T23:05:08.383Z,2.50
2023-04-17T23:07:36.407Z,2.60
2023-04-17T23:10:04.520Z,2.40
2023-04-17T23:12:32.790Z,2.40
2023-04-17T23:15:00.794Z,1.90
2023-04-17T23:17:28.742Z,2.57
2023-04-17T23:19:58.265Z,2.43
2023-04-17T23:22:26.325Z,2.13
2023-04-17T23:24:54.303Z,2.30
2023-04-17T23:27:22.267Z,2.50
2023-04-17T23:29:50.206Z,2.33
2023-04-17T23:32:18.253Z,2.60
2023-04-17T23:34:46.229Z,2.77
2023-04-17T23:37:15.581Z,2.73
2023-04-17T23:39:43.822Z,2.67
2023-04-17T23:42:11.743Z,4.00
2023-04-17T23:44:39.686Z,8.37
2023-04-17T23:47:07.691Z,3.40
2023-04-17T23:49:36.535Z,3.30
2023-04-17T23:52:04.520Z,3.30
2023-04-17T23:54:33.979Z,2.60
2023-04-17T23:57:02.352Z,3.07
2023-04-17T23:59:30.329Z,2.60
